Rio Linda — WDD8906 — position and weather

sailwx.info

Track history (hours):
 
Tides and Currents Weather Stations Pressure Air Temp Water Temp Dewpoint Dewpoint Depression Visibility Wind Speed Wind Dir Waves Ship Positions

Rio Linda

Owner: Losch, Richard, Bend, OR. More information available from US FCC via Universal Licensing System and Coast Guard Vessel Documentation Center.

Last reported at 2017-Oct-06 20:04 UTC. Time now 2017-Dec-13 17:06 UTC.
Position N 47°39' W 122°19'.
Warning: this ship's position is months out of date.

Length 17 m; draft 2 m.

Type: Pleasure craft. MMSI: 367304420.

Date/timePositionNaut miles runAvg speedWind from/ knotsBaromVisibWave heightAir tempDewpointWater temp
2017-Oct-06 20:04N 47°39' W 122°19'0 0.7
2017-Oct-06 20:00N 47°39' W 122°19'2 3.8
2017-Oct-06 19:30N 47°39' W 122°22'2 3.2
2017-Oct-06 19:01N 47°40' W 122°24'1 1.8
2017-Oct-06 18:31N 47°41' W 122°25'4 7.6
2017-Oct-06 18:01N 47°38' W 122°28'2 4.2
2017-Oct-06 17:30N 47°37' W 122°31'0 0.0
2017-Oct-06 00:23N 47°37' W 122°31'1 2.4
2017-Oct-06 00:01N 47°37' W 122°30'2 4.6
2017-Oct-05 23:30N 47°39' W 122°29'4 7.4
2017-Oct-05 23:00N 47°43' W 122°28'4 7.8
2017-Oct-05 22:30N 47°47' W 122°28'4 7.5
2017-Oct-05 22:00N 47°51' W 122°29'4 7.9
2017-Oct-05 21:30N 47°54' W 122°31'6 8.8
2017-Oct-05 20:52N 47°59' W 122°36'25 7.9
2017-Oct-05 17:40N 48°21' W 122°54'1 7.2
2017-Oct-05 17:29N 48°22' W 122°54'4 7.3
2017-Oct-05 16:59N 48°25' W 122°56'  
2017-Oct-02 20:16N 48°31' W 122°55'1 2.4
2017-Oct-02 20:00N 48°31' W 122°55'3 6.8
2017-Oct-02 19:30N 48°35' W 122°54'3 6.6
2017-Oct-02 19:00N 48°36' W 122°59'4 6.7
2017-Oct-02 18:26N 48°38' W 123°04'3 7.8
2017-Oct-02 18:00N 48°39' W 123°08'3 6.1
2017-Oct-02 17:30N 48°41' W 123°12'0 0.0
2017-Oct-01 20:41N 48°41' W 123°12'6 7.5
2017-Oct-01 19:54N 48°45' W 123°18'3 7.0
2017-Oct-01 19:28N 48°47' W 123°22'3 7.1
2017-Oct-01 19:00N 48°49' W 123°25'3 6.5
2017-Oct-01 18:30N 48°51' W 123°29'17 0.4
2017-Sep-29 23:28N 48°38' W 123°14'4 0.2
2017-Sep-29 03:04N 48°37' W 123°09'0 0.1
2017-Sep-29 03:00N 48°37' W 123°09'2 3.4
2017-Sep-29 02:30N 48°35' W 123°10'3 6.3
2017-Sep-29 02:01N 48°32' W 123°10'3 6.2
2017-Sep-29 01:30N 48°29' W 123°08'3 6.4
2017-Sep-29 01:00N 48°27' W 123°04'4 7.1
2017-Sep-29 00:30N 48°24' W 123°01'29 7.6
2017-Sep-28 20:38N 47°58' W 122°41'3 0.2
2017-Sep-28 05:31N 47°55' W 122°41'1 7.0
2017-Sep-28 05:23N 47°56' W 122°41'2 5.1
2017-Sep-28 05:00N 47°57' W 122°38'3 6.6
2017-Sep-28 04:30N 47°56' W 122°34'3 6.7
2017-Sep-28 04:00N 47°54' W 122°30'4 7.2
2017-Sep-28 03:30N 47°50' W 122°29'3 6.9
2017-Sep-28 03:00N 47°47' W 122°27'4 7.2
2017-Sep-28 02:30N 47°43' W 122°26'3 6.7
2017-Sep-28 02:00N 47°40' W 122°24'2 4.0
2017-Sep-28 01:30N 47°39' W 122°22'2 1.8
2017-Sep-28 00:28N 47°39' W 122°19'1 2.2
2017-Sep-28 00:00N 47°39' W 122°20'  
Track history (hours):
 
Tides and Currents Weather Stations Pressure Air Temp Water Temp Dewpoint Dewpoint Depression Visibility Wind Speed Wind Dir Waves Ship Positions

Rio Linda

Owner: Losch, Richard, Bend, OR. More information available from US FCC via Universal Licensing System and Coast Guard Vessel Documentation Center.

Last reported at 2017-Oct-06 20:04 UTC. Time now 2017-Dec-13 17:06 UTC.
Position N 47°39' W 122°19'.
Warning: this ship's position is months out of date.

Length 17 m; draft 2 m.

Type: Pleasure craft. MMSI: 367304420.

Date/timePositionNaut miles runAvg speedWind from/ knotsBaromVisibWave heightAir tempDewpointWater temp
2017-Oct-06 20:04N 47°39' W 122°19'0 0.7
2017-Oct-06 20:00N 47°39' W 122°19'2 3.8
2017-Oct-06 19:30N 47°39' W 122°22'2 3.2
2017-Oct-06 19:01N 47°40' W 122°24'1 1.8
2017-Oct-06 18:31N 47°41' W 122°25'4 7.6
2017-Oct-06 18:01N 47°38' W 122°28'2 4.2
2017-Oct-06 17:30N 47°37' W 122°31'0 0.0
2017-Oct-06 00:23N 47°37' W 122°31'1 2.4
2017-Oct-06 00:01N 47°37' W 122°30'2 4.6
2017-Oct-05 23:30N 47°39' W 122°29'4 7.4
2017-Oct-05 23:00N 47°43' W 122°28'4 7.8
2017-Oct-05 22:30N 47°47' W 122°28'4 7.5
2017-Oct-05 22:00N 47°51' W 122°29'4 7.9
2017-Oct-05 21:30N 47°54' W 122°31'6 8.8
2017-Oct-05 20:52N 47°59' W 122°36'25 7.9
2017-Oct-05 17:40N 48°21' W 122°54'1 7.2
2017-Oct-05 17:29N 48°22' W 122°54'4 7.3
2017-Oct-05 16:59N 48°25' W 122°56'  
2017-Oct-02 20:16N 48°31' W 122°55'1 2.4
2017-Oct-02 20:00N 48°31' W 122°55'3 6.8
2017-Oct-02 19:30N 48°35' W 122°54'3 6.6
2017-Oct-02 19:00N 48°36' W 122°59'4 6.7
2017-Oct-02 18:26N 48°38' W 123°04'3 7.8
2017-Oct-02 18:00N 48°39' W 123°08'3 6.1
2017-Oct-02 17:30N 48°41' W 123°12'0 0.0
2017-Oct-01 20:41N 48°41' W 123°12'6 7.5
2017-Oct-01 19:54N 48°45' W 123°18'3 7.0
2017-Oct-01 19:28N 48°47' W 123°22'3 7.1
2017-Oct-01 19:00N 48°49' W 123°25'3 6.5
2017-Oct-01 18:30N 48°51' W 123°29'17 0.4
2017-Sep-29 23:28N 48°38' W 123°14'4 0.2
2017-Sep-29 03:04N 48°37' W 123°09'0 0.1
2017-Sep-29 03:00N 48°37' W 123°09'2 3.4
2017-Sep-29 02:30N 48°35' W 123°10'3 6.3
2017-Sep-29 02:01N 48°32' W 123°10'3 6.2
2017-Sep-29 01:30N 48°29' W 123°08'3 6.4
2017-Sep-29 01:00N 48°27' W 123°04'4 7.1
2017-Sep-29 00:30N 48°24' W 123°01'29 7.6
2017-Sep-28 20:38N 47°58' W 122°41'3 0.2
2017-Sep-28 05:31N 47°55' W 122°41'1 7.0
2017-Sep-28 05:23N 47°56' W 122°41'2 5.1
2017-Sep-28 05:00N 47°57' W 122°38'3 6.6
2017-Sep-28 04:30N 47°56' W 122°34'3 6.7
2017-Sep-28 04:00N 47°54' W 122°30'4 7.2
2017-Sep-28 03:30N 47°50' W 122°29'3 6.9
2017-Sep-28 03:00N 47°47' W 122°27'4 7.2
2017-Sep-28 02:30N 47°43' W 122°26'3 6.7
2017-Sep-28 02:00N 47°40' W 122°24'2 4.0
2017-Sep-28 01:30N 47°39' W 122°22'2 1.8
2017-Sep-28 00:28N 47°39' W 122°19'1 2.2
2017-Sep-28 00:00N 47°39' W 122°20'  

Dump ship's entire track history